Time;durP1;ratioP1;P1;durP2;ratioP2;P2;SDS_P1;SDS_P2;PMS_P1;PMS_P2;Temp;Humidity;BMP_temperature;BMP_pressure;BME280_temperature;BME280_humidity;BME280_pressure;Samples;Min_cycle;Max_cycle;Signal;HPM_P1;HPM_P2
2023/06/18 00:02:18;;;;;;;3.53;3.30;;;;;;;;;;5069527;28;20300;-62
2023/06/18 00:04:46;;;;;;;3.10;3.00;;;;;;;;;;5068070;28;20210;-62
2023/06/18 00:07:13;;;;;;;3.95;3.65;;;;;;;;;;5049136;28;20218;-62
2023/06/18 00:09:40;;;;;;;3.50;3.20;;;;;;;;;;5060512;28;20667;-62
2023/06/18 00:12:07;;;;;;;3.45;3.20;;;;;;;;;;5049608;28;20211;-62
2023/06/18 00:14:34;;;;;;;3.50;3.30;;;;;;;;;;5061098;28;20264;-62
2023/06/18 00:17:02;;;;;;;3.55;3.28;;;;;;;;;;5055529;28;20289;-62
2023/06/18 00:19:29;;;;;;;3.17;3.00;;;;;;;;;;5052154;28;20211;-61
2023/06/18 00:21:59;;;;;;;3.80;3.60;;;;;;;;;;5068432;28;20689;-61
2023/06/18 00:24:26;;;;;;;3.10;2.90;;;;;;;;;;5064921;28;20223;-62
2023/06/18 00:26:53;;;;;;;3.45;3.10;;;;;;;;;;5049452;28;20215;-62
2023/06/18 00:29:20;;;;;;;3.83;3.45;;;;;;;;;;5065007;28;20221;-62
2023/06/18 00:31:47;;;;;;;3.30;3.10;;;;;;;;;;5069270;28;20851;-62
2023/06/18 00:34:17;;;;;;;3.17;2.97;;;;;;;;;;5054540;28;20501;-62
2023/06/18 00:36:50;;;;;;;4.10;3.40;;;;;;;;;;5066563;28;20309;-62
2023/06/18 00:39:17;;;;;;;3.72;3.45;;;;;;;;;;5056697;28;20208;-62
2023/06/18 00:41:46;;;;;;;3.47;3.28;;;;;;;;;;5049056;28;20224;-62
2023/06/18 00:44:13;;;;;;;3.03;2.83;;;;;;;;;;5048908;28;20211;-62
2023/06/18 00:46:41;;;;;;;3.42;3.22;;;;;;;;;;5053758;28;20298;-62
2023/06/18 00:49:08;;;;;;;5.07;3.17;;;;;;;;;;5048521;28;20219;-63
2023/06/18 00:51:37;;;;;;;3.97;3.67;;;;;;;;;;5049151;28;20257;-62
2023/06/18 00:54:04;;;;;;;3.67;3.45;;;;;;;;;;5063061;28;20272;-62
2023/06/18 00:56:31;;;;;;;3.72;3.53;;;;;;;;;;5059708;28;20695;-62
2023/06/18 00:58:59;;;;;;;3.85;3.55;;;;;;;;;;5056407;28;20210;-62
2023/06/18 01:01:26;;;;;;;3.53;3.33;;;;;;;;;;5060008;28;20298;-64
2023/06/18 01:03:53;;;;;;;3.83;3.53;;;;;;;;;;5048040;28;20326;-61
2023/06/18 01:06:20;;;;;;;3.47;3.28;;;;;;;;;;5061398;28;20210;-64
2023/06/18 01:08:49;;;;;;;3.17;2.97;;;;;;;;;;5049544;28;20602;-64
2023/06/18 01:11:19;;;;;;;3.75;3.47;;;;;;;;;;5048715;28;20303;-64
2023/06/18 01:13:46;;;;;;;3.58;3.38;;;;;;;;;;5048255;28;20728;-64
2023/06/18 01:16:14;;;;;;;4.10;3.72;;;;;;;;;;5047874;28;20207;-64
2023/06/18 01:18:45;;;;;;;4.15;3.83;;;;;;;;;;5047827;28;20258;-64
2023/06/18 01:21:13;;;;;;;4.85;4.05;;;;;;;;;;5054875;28;20269;-64
2023/06/18 01:23:49;;;;;;;3.88;3.58;;;;;;;;;;5055146;28;20846;-64
2023/06/18 01:26:20;;;;;;;3.45;3.25;;;;;;;;;;5065981;28;20215;-64
2023/06/18 01:28:48;;;;;;;3.70;3.50;;;;;;;;;;5063801;28;20771;-64
2023/06/18 01:31:16;;;;;;;3.20;3.10;;;;;;;;;;5048183;28;20266;-61
2023/06/18 01:33:43;;;;;;;4.15;3.88;;;;;;;;;;5046945;28;20208;-63
2023/06/18 01:36:12;;;;;;;3.88;3.67;;;;;;;;;;5048131;28;20238;-64
2023/06/18 01:38:42;;;;;;;3.35;3.15;;;;;;;;;;5049985;28;20211;-63
2023/06/18 01:41:11;;;;;;;5.47;3.85;;;;;;;;;;5067907;28;20301;-64
2023/06/18 01:43:41;;;;;;;3.70;3.40;;;;;;;;;;5051412;28;20678;-61
2023/06/18 01:46:10;;;;;;;6.43;4.18;;;;;;;;;;5063760;28;20215;-63
2023/06/18 01:48:39;;;;;;;4.95;3.63;;;;;;;;;;5066166;28;20210;-60
2023/06/18 01:51:07;;;;;;;3.60;3.30;;;;;;;;;;5067645;28;20673;-61
2023/06/18 01:53:35;;;;;;;3.92;3.53;;;;;;;;;;5065884;28;20298;-61
2023/06/18 01:56:03;;;;;;;3.88;3.53;;;;;;;;;;5055361;28;20884;-63
2023/06/18 01:58:31;;;;;;;5.28;3.78;;;;;;;;;;5065813;28;20214;-62
2023/06/18 02:00:59;;;;;;;3.80;3.58;;;;;;;;;;5047519;28;20932;-63
2023/06/18 02:03:27;;;;;;;5.03;3.78;;;;;;;;;;5056015;28;20677;-63
2023/06/18 02:05:54;;;;;;;4.22;3.60;;;;;;;;;;5067500;28;20679;-62
2023/06/18 02:08:21;;;;;;;3.85;3.65;;;;;;;;;;5066602;28;20211;-62
2023/06/18 02:10:48;;;;;;;3.83;3.53;;;;;;;;;;5054223;28;20464;-62
2023/06/18 02:13:15;;;;;;;3.92;3.63;;;;;;;;;;5065355;28;20198;-63
2023/06/18 02:15:42;;;;;;;3.28;3.08;;;;;;;;;;5063220;28;20215;-63
2023/06/18 02:18:11;;;;;;;4.00;3.78;;;;;;;;;;5051608;28;20283;-63
2023/06/18 02:20:38;;;;;;;3.63;3.33;;;;;;;;;;5050586;28;20329;-63
2023/06/18 02:23:06;;;;;;;4.80;3.65;;;;;;;;;;5056593;28;20235;-62
2023/06/18 02:25:33;;;;;;;4.38;3.75;;;;;;;;;;5058341;28;20215;-62
2023/06/18 02:28:01;;;;;;;3.35;3.05;;;;;;;;;;5055661;28;20221;-63
2023/06/18 02:30:29;;;;;;;3.92;3.58;;;;;;;;;;5054303;28;20211;-63
2023/06/18 02:32:56;;;;;;;4.10;3.75;;;;;;;;;;5055244;28;20220;-63
2023/06/18 02:35:25;;;;;;;3.58;3.38;;;;;;;;;;5053975;28;20211;-61
2023/06/18 02:37:52;;;;;;;6.13;3.40;;;;;;;;;;5054699;28;20203;-62
2023/06/18 02:40:19;;;;;;;4.22;3.55;;;;;;;;;;5055393;28;20761;-61
2023/06/18 02:42:50;;;;;;;3.83;3.63;;;;;;;;;;5053500;28;20273;-62
2023/06/18 02:45:17;;;;;;;4.03;3.63;;;;;;;;;;5049271;28;20302;-62
2023/06/18 02:47:45;;;;;;;4.22;3.78;;;;;;;;;;5049940;28;20196;-61
2023/06/18 02:50:12;;;;;;;3.45;3.15;;;;;;;;;;5049456;28;20328;-61
2023/06/18 02:52:40;;;;;;;3.67;3.38;;;;;;;;;;5050070;28;20200;-62
2023/06/18 02:55:08;;;;;;;4.15;3.85;;;;;;;;;;5054216;28;20211;-61
2023/06/18 02:57:35;;;;;;;3.97;3.58;;;;;;;;;;5061415;28;20200;-62
2023/06/18 03:00:04;;;;;;;6.40;4.07;;;;;;;;;;5060122;28;20760;-62
2023/06/18 03:02:31;;;;;;;3.80;3.53;;;;;;;;;;5057383;28;20725;-63
2023/06/18 03:04:59;;;;;;;4.20;3.88;;;;;;;;;;5057323;28;20631;-62
2023/06/18 03:07:26;;;;;;;4.40;3.65;;;;;;;;;;5060962;28;20674;-62
2023/06/18 03:09:54;;;;;;;3.58;3.28;;;;;;;;;;5060205;28;20270;-62
2023/06/18 03:12:21;;;;;;;4.25;3.88;;;;;;;;;;5058533;28;20704;-62
2023/06/18 03:14:48;;;;;;;4.07;3.60;;;;;;;;;;5061356;28;20279;-62
2023/06/18 03:17:16;;;;;;;3.78;3.38;;;;;;;;;;5049657;28;20231;-62
2023/06/18 03:19:43;;;;;;;4.32;4.03;;;;;;;;;;5048944;28;20277;-62
2023/06/18 03:22:10;;;;;;;6.00;4.22;;;;;;;;;;5059127;28;20235;-62
2023/06/18 03:24:38;;;;;;;4.45;4.00;;;;;;;;;;5060556;28;20573;-62
2023/06/18 03:27:06;;;;;;;6.38;4.55;;;;;;;;;;5057648;28;20208;-62
2023/06/18 03:29:35;;;;;;;5.03;4.47;;;;;;;;;;5058206;28;20198;-62
2023/06/18 03:32:02;;;;;;;6.28;5.00;;;;;;;;;;5059154;28;20253;-61
2023/06/18 03:34:31;;;;;;;4.75;4.35;;;;;;;;;;5057582;28;20303;-62
2023/06/18 03:37:00;;;;;;;6.95;4.97;;;;;;;;;;5057308;28;20218;-62
2023/06/18 03:39:27;;;;;;;4.53;4.07;;;;;;;;;;5058351;28;20215;-62
2023/06/18 03:41:54;;;;;;;6.32;4.60;;;;;;;;;;5058066;28;20265;-62
2023/06/18 03:44:23;;;;;;;5.45;4.95;;;;;;;;;;5058719;28;20227;-62
2023/06/18 03:46:50;;;;;;;6.53;5.40;;;;;;;;;;5056903;28;20217;-62
2023/06/18 03:49:17;;;;;;;6.20;5.20;;;;;;;;;;5058234;28;20227;-62
2023/06/18 03:51:44;;;;;;;7.43;5.70;;;;;;;;;;5057253;28;20521;-62
2023/06/18 03:54:11;;;;;;;8.10;5.40;;;;;;;;;;5059698;28;20195;-63
2023/06/18 03:56:39;;;;;;;8.05;4.90;;;;;;;;;;5055702;28;20212;-63
2023/06/18 03:59:06;;;;;;;6.88;5.20;;;;;;;;;;5057568;28;20252;-62
2023/06/18 04:01:34;;;;;;;9.55;5.50;;;;;;;;;;5057236;28;20338;-62
2023/06/18 04:04:03;;;;;;;6.35;5.70;;;;;;;;;;5058444;28;20742;-63
2023/06/18 04:06:30;;;;;;;5.85;5.20;;;;;;;;;;5057476;28;20213;-63
2023/06/18 04:08:57;;;;;;;5.47;4.82;;;;;;;;;;5058286;28;20219;-63
2023/06/18 04:11:24;;;;;;;7.80;5.25;;;;;;;;;;5058062;28;20576;-62
2023/06/18 04:13:51;;;;;;;8.25;5.90;;;;;;;;;;5059354;28;20198;-62
2023/06/18 04:16:18;;;;;;;6.15;5.25;;;;;;;;;;5057015;28;20260;-62
2023/06/18 04:18:47;;;;;;;6.10;5.05;;;;;;;;;;5054407;28;20269;-63
2023/06/18 04:21:14;;;;;;;5.88;5.28;;;;;;;;;;5059349;28;20223;-64
2023/06/18 04:23:42;;;;;;;5.50;4.90;;;;;;;;;;5066978;28;20256;-62
2023/06/18 04:26:09;;;;;;;5.05;4.28;;;;;;;;;;5064112;28;20257;-63
2023/06/18 04:28:36;;;;;;;4.93;4.50;;;;;;;;;;5051917;28;20614;-63
2023/06/18 04:31:03;;;;;;;8.50;4.47;;;;;;;;;;5057507;28;20204;-62
2023/06/18 04:33:30;;;;;;;5.15;4.60;;;;;;;;;;5062534;28;20322;-61
2023/06/18 04:35:58;;;;;;;8.25;4.82;;;;;;;;;;5062972;28;20215;-62
2023/06/18 04:38:25;;;;;;;4.28;3.88;;;;;;;;;;5064360;28;20223;-61
2023/06/18 04:40:52;;;;;;;6.13;4.82;;;;;;;;;;5061681;28;20203;-62
2023/06/18 04:43:19;;;;;;;6.63;4.35;;;;;;;;;;5048344;28;20235;-62
2023/06/18 04:45:47;;;;;;;4.50;4.18;;;;;;;;;;5051519;28;20216;-61
2023/06/18 04:48:15;;;;;;;5.65;4.47;;;;;;;;;;5047314;28;20899;-62
2023/06/18 04:50:42;;;;;;;4.95;4.55;;;;;;;;;;5046474;28;20231;-62
2023/06/18 04:53:10;;;;;;;4.47;4.07;;;;;;;;;;5051344;28;20217;-62
2023/06/18 04:55:37;;;;;;;4.78;4.13;;;;;;;;;;5059717;28;20204;-62
2023/06/18 04:58:05;;;;;;;5.28;4.60;;;;;;;;;;5049644;28;20208;-62
2023/06/18 05:00:33;;;;;;;5.30;4.53;;;;;;;;;;5057553;28;20302;-62
2023/06/18 05:03:00;;;;;;;4.20;3.88;;;;;;;;;;5059740;28;20256;-63
2023/06/18 05:05:27;;;;;;;4.28;4.00;;;;;;;;;;5049546;28;20317;-62
2023/06/18 05:07:54;;;;;;;4.18;3.88;;;;;;;;;;5063917;28;20218;-62
2023/06/18 05:10:23;;;;;;;4.75;4.25;;;;;;;;;;5053521;28;20218;-63
2023/06/18 05:12:51;;;;;;;4.65;4.22;;;;;;;;;;5062462;28;20580;-62
2023/06/18 05:15:18;;;;;;;4.32;3.92;;;;;;;;;;5060479;28;20210;-62
2023/06/18 05:17:45;;;;;;;4.97;4.18;;;;;;;;;;5060889;28;20306;-62
2023/06/18 05:20:13;;;;;;;9.32;4.47;;;;;;;;;;5052386;28;20736;-64
2023/06/18 05:22:40;;;;;;;4.93;4.43;;;;;;;;;;5053596;28;20636;-63
2023/06/18 05:25:08;;;;;;;5.32;4.65;;;;;;;;;;5060141;28;20230;-62
2023/06/18 05:27:36;;;;;;;4.20;3.80;;;;;;;;;;5064682;28;20214;-63
2023/06/18 05:30:03;;;;;;;4.43;4.03;;;;;;;;;;5056735;28;20551;-63
2023/06/18 05:32:30;;;;;;;4.50;4.10;;;;;;;;;;5067660;28;20591;-63
2023/06/18 05:34:57;;;;;;;5.78;4.53;;;;;;;;;;5059687;28;20241;-63
2023/06/18 05:37:24;;;;;;;5.40;4.88;;;;;;;;;;5058505;28;20222;-63
2023/06/18 05:39:52;;;;;;;4.38;3.97;;;;;;;;;;5047674;28;20265;-64
2023/06/18 05:42:19;;;;;;;4.45;4.05;;;;;;;;;;5047950;28;20218;-64
2023/06/18 05:44:48;;;;;;;4.25;3.92;;;;;;;;;;5047678;28;20303;-64
2023/06/18 05:47:15;;;;;;;6.40;4.40;;;;;;;;;;5047965;28;20211;-64
2023/06/18 05:49:42;;;;;;;4.78;4.38;;;;;;;;;;5056999;28;20211;-63
2023/06/18 05:52:09;;;;;;;5.13;4.63;;;;;;;;;;5061501;28;20854;-63
2023/06/18 05:54:36;;;;;;;4.28;3.90;;;;;;;;;;5061834;28;20278;-63
2023/06/18 05:57:03;;;;;;;4.15;3.85;;;;;;;;;;5066428;28;20207;-64
2023/06/18 05:59:31;;;;;;;4.60;4.20;;;;;;;;;;5058798;28;20210;-64
2023/06/18 06:01:59;;;;;;;5.07;4.68;;;;;;;;;;5053864;28;20298;-63
2023/06/18 06:04:26;;;;;;;4.78;4.30;;;;;;;;;;5054206;28;20318;-63
2023/06/18 06:06:53;;;;;;;6.65;4.32;;;;;;;;;;5061463;28;20213;-64
2023/06/18 06:09:20;;;;;;;5.22;4.72;;;;;;;;;;5057254;28;20265;-64
2023/06/18 06:11:47;;;;;;;5.45;4.95;;;;;;;;;;5051488;28;20500;-64
2023/06/18 06:14:15;;;;;;;8.70;4.57;;;;;;;;;;5046175;28;20216;-64
2023/06/18 06:16:42;;;;;;;4.97;4.57;;;;;;;;;;5045715;28;20286;-64
2023/06/18 06:19:10;;;;;;;6.55;4.65;;;;;;;;;;5049899;28;20275;-64
2023/06/18 06:21:38;;;;;;;4.85;4.45;;;;;;;;;;5048332;28;20241;-64
2023/06/18 06:24:05;;;;;;;5.45;4.32;;;;;;;;;;5060863;28;20228;-64
2023/06/18 06:26:32;;;;;;;4.75;4.35;;;;;;;;;;5047480;28;20212;-63
2023/06/18 06:29:00;;;;;;;5.40;4.90;;;;;;;;;;5045673;28;20212;-63
2023/06/18 06:31:27;;;;;;;4.32;4.03;;;;;;;;;;5046314;28;20214;-63
2023/06/18 06:33:54;;;;;;;4.97;4.28;;;;;;;;;;5057661;28;20668;-63
2023/06/18 06:36:23;;;;;;;4.85;4.43;;;;;;;;;;5056723;28;20298;-62
2023/06/18 06:38:50;;;;;;;4.82;4.32;;;;;;;;;;5052517;28;20211;-63
2023/06/18 06:41:17;;;;;;;4.50;4.18;;;;;;;;;;5052738;28;20301;-63
2023/06/18 06:43:44;;;;;;;4.40;4.00;;;;;;;;;;5046734;28;20715;-63
2023/06/18 06:46:11;;;;;;;5.78;4.10;;;;;;;;;;5063462;28;20214;-63
2023/06/18 06:48:40;;;;;;;4.40;4.00;;;;;;;;;;5049997;28;20207;-63
2023/06/18 06:51:07;;;;;;;3.95;3.65;;;;;;;;;;5046891;28;20203;-63
2023/06/18 06:53:35;;;;;;;4.78;4.38;;;;;;;;;;5054673;28;20215;-63
2023/06/18 06:56:02;;;;;;;7.70;4.00;;;;;;;;;;5059739;28;20203;-64
2023/06/18 06:58:30;;;;;;;3.55;3.35;;;;;;;;;;5051480;28;20207;-63
2023/06/18 07:00:57;;;;;;;4.13;3.72;;;;;;;;;;5053730;28;20241;-65
2023/06/18 07:03:25;;;;;;;4.18;3.90;;;;;;;;;;5058939;28;20360;-63
2023/06/18 07:05:52;;;;;;;4.07;3.70;;;;;;;;;;5055479;28;20650;-67
2023/06/18 07:08:19;;;;;;;3.83;3.63;;;;;;;;;;5055415;28;20211;-64
2023/06/18 07:10:47;;;;;;;4.57;4.20;;;;;;;;;;5061799;28;20215;-61
2023/06/18 07:13:14;;;;;;;4.00;3.75;;;;;;;;;;5062579;28;20204;-62
2023/06/18 07:15:41;;;;;;;3.85;3.55;;;;;;;;;;5058786;28;20237;-62
2023/06/18 07:18:08;;;;;;;5.00;4.18;;;;;;;;;;5054043;28;20636;-60
2023/06/18 07:20:35;;;;;;;3.47;3.17;;;;;;;;;;5055498;28;20242;-64
2023/06/18 07:23:02;;;;;;;4.20;3.92;;;;;;;;;;5047787;28;20391;-66
2023/06/18 07:25:29;;;;;;;3.95;3.72;;;;;;;;;;5058857;28;20228;-64
2023/06/18 07:27:58;;;;;;;6.88;3.92;;;;;;;;;;5052957;28;20642;-65
2023/06/18 07:30:25;;;;;;;3.78;3.53;;;;;;;;;;5059186;28;20218;-64
2023/06/18 07:32:52;;;;;;;3.78;3.47;;;;;;;;;;5058575;28;20204;-64
2023/06/18 07:35:19;;;;;;;4.38;4.07;;;;;;;;;;5052239;28;20196;-64
2023/06/18 07:37:47;;;;;;;6.40;3.75;;;;;;;;;;5068476;28;20218;-64
2023/06/18 07:40:14;;;;;;;3.75;3.45;;;;;;;;;;5069239;28;20220;-64
2023/06/18 07:42:41;;;;;;;4.30;3.97;;;;;;;;;;5067808;28;20706;-64
2023/06/18 07:45:10;;;;;;;4.13;3.83;;;;;;;;;;5069300;28;20237;-64
2023/06/18 07:47:39;;;;;;;3.95;3.65;;;;;;;;;;5069577;28;20215;-65
2023/06/18 07:50:07;;;;;;;4.07;3.72;;;;;;;;;;5050407;28;20208;-65
2023/06/18 07:52:34;;;;;;;4.35;3.92;;;;;;;;;;5051708;28;20311;-64
2023/06/18 07:55:01;;;;;;;4.60;4.00;;;;;;;;;;5050906;28;20204;-63
2023/06/18 07:57:28;;;;;;;4.05;3.85;;;;;;;;;;5050571;28;20215;-65
2023/06/18 07:59:55;;;;;;;4.18;3.88;;;;;;;;;;5057811;28;20215;-66
2023/06/18 08:02:23;;;;;;;4.25;3.95;;;;;;;;;;5049540;28;20232;-63
2023/06/18 08:04:50;;;;;;;4.07;3.78;;;;;;;;;;5056370;28;20724;-64
2023/06/18 08:07:17;;;;;;;4.28;3.85;;;;;;;;;;5061114;28;20631;-63
2023/06/18 08:09:44;;;;;;;4.22;3.92;;;;;;;;;;5058791;28;20212;-63
2023/06/18 08:12:12;;;;;;;4.50;4.20;;;;;;;;;;5052777;28;20683;-65
2023/06/18 08:14:39;;;;;;;4.20;3.85;;;;;;;;;;5066156;28;20203;-65
2023/06/18 08:17:06;;;;;;;4.38;3.97;;;;;;;;;;5066991;28;20257;-65
2023/06/18 08:19:34;;;;;;;3.88;3.65;;;;;;;;;;5061684;28;20226;-65
2023/06/18 08:22:01;;;;;;;3.80;3.60;;;;;;;;;;5049448;28;20227;-65
2023/06/18 08:24:28;;;;;;;4.25;4.05;;;;;;;;;;5061116;28;20235;-65
2023/06/18 08:26:55;;;;;;;3.85;3.65;;;;;;;;;;5059001;28;20778;-64
2023/06/18 08:29:22;;;;;;;3.80;3.50;;;;;;;;;;5052362;28;20317;-65
2023/06/18 08:31:49;;;;;;;4.55;4.25;;;;;;;;;;5044905;28;20216;-65
2023/06/18 08:34:16;;;;;;;4.38;3.97;;;;;;;;;;5060759;28;20310;-64
2023/06/18 08:36:46;;;;;;;4.13;3.92;;;;;;;;;;5052749;28;20208;-65
2023/06/18 08:39:13;;;;;;;4.50;4.20;;;;;;;;;;5052580;28;20241;-65
2023/06/18 08:41:45;;;;;;;4.68;3.97;;;;;;;;;;5058399;28;20215;-66
2023/06/18 08:44:12;;;;;;;4.50;4.20;;;;;;;;;;5054885;28;20224;-64
2023/06/18 08:46:40;;;;;;;5.53;3.88;;;;;;;;;;5061675;28;20203;-64
2023/06/18 08:49:08;;;;;;;4.28;3.88;;;;;;;;;;5055692;28;20210;-61
2023/06/18 08:51:38;;;;;;;4.60;4.10;;;;;;;;;;5058432;28;20501;-62
2023/06/18 08:54:09;;;;;;;4.03;3.72;;;;;;;;;;5058952;28;20297;-62
2023/06/18 08:56:38;;;;;;;4.00;3.75;;;;;;;;;;5057158;28;20218;-62
2023/06/18 08:59:06;;;;;;;3.83;3.65;;;;;;;;;;5050024;28;20222;-62
2023/06/18 09:01:34;;;;;;;5.15;4.00;;;;;;;;;;5047544;28;20219;-62
2023/06/18 09:04:02;;;;;;;4.03;3.75;;;;;;;;;;5053153;28;20240;-62
2023/06/18 09:06:30;;;;;;;4.28;3.88;;;;;;;;;;5049250;28;20591;-62
2023/06/18 09:08:58;;;;;;;4.15;3.88;;;;;;;;;;5053459;28;20645;-62
2023/06/18 09:11:26;;;;;;;4.38;4.07;;;;;;;;;;5067625;28;20610;-62
2023/06/18 09:13:54;;;;;;;4.63;4.22;;;;;;;;;;5063280;28;20446;-63
2023/06/18 09:16:21;;;;;;;4.18;3.80;;;;;;;;;;5044788;28;20237;-63
2023/06/18 09:18:48;;;;;;;4.20;3.90;;;;;;;;;;5047796;28;20208;-62
2023/06/18 09:21:30;;;;;;;4.15;3.85;;;;;;;;;;5048593;28;20292;-62
2023/06/18 09:23:57;;;;;;;4.90;4.40;;;;;;;;;;5048703;28;20261;-62
2023/06/18 09:26:26;;;;;;;3.88;3.58;;;;;;;;;;5049823;28;20246;-72
2023/06/18 09:28:55;;;;;;;4.20;4.00;;;;;;;;;;5052795;28;20242;-62
2023/06/18 09:31:26;;;;;;;4.13;3.83;;;;;;;;;;5057137;28;20257;-63
2023/06/18 09:33:53;;;;;;;4.03;3.90;;;;;;;;;;5045360;28;20307;-63
2023/06/18 09:36:20;;;;;;;11.32;3.97;;;;;;;;;;5048375;28;20219;-63
2023/06/18 09:38:47;;;;;;;3.67;3.58;;;;;;;;;;5051139;28;20203;-63
2023/06/18 09:41:16;;;;;;;4.18;3.88;;;;;;;;;;5056050;28;20211;-64
2023/06/18 09:43:45;;;;;;;4.22;3.83;;;;;;;;;;5067013;28;20223;-63
2023/06/18 09:46:14;;;;;;;3.85;3.65;;;;;;;;;;5049915;28;20631;-62
2023/06/18 09:48:42;;;;;;;4.43;4.15;;;;;;;;;;5055259;28;20292;-62
2023/06/18 09:51:09;;;;;;;3.83;3.65;;;;;;;;;;5057922;28;20203;-62
2023/06/18 09:53:36;;;;;;;4.18;3.97;;;;;;;;;;5051608;28;20218;-62
2023/06/18 09:56:10;;;;;;;4.13;3.92;;;;;;;;;;5049486;28;20212;-61
2023/06/18 09:58:41;;;;;;;4.22;3.85;;;;;;;;;;5047504;28;20764;-61
2023/06/18 10:01:08;;;;;;;5.07;4.65;;;;;;;;;;5052678;28;20268;-63
2023/06/18 10:03:37;;;;;;;4.60;4.30;;;;;;;;;;5050239;28;20243;-63
2023/06/18 10:06:16;;;;;;;4.82;4.13;;;;;;;;;;5053323;28;20227;-63
2023/06/18 10:08:45;;;;;;;4.57;4.28;;;;;;;;;;5048636;28;20214;-63
2023/06/18 10:11:12;;;;;;;4.97;4.25;;;;;;;;;;5067563;28;20272;-63
2023/06/18 10:13:42;;;;;;;4.50;4.10;;;;;;;;;;5067150;28;20214;-63
2023/06/18 10:16:09;;;;;;;4.55;4.25;;;;;;;;;;5067177;28;20198;-63
2023/06/18 10:18:38;;;;;;;4.28;3.97;;;;;;;;;;5062839;28;20212;-62
2023/06/18 10:21:06;;;;;;;4.03;3.83;;;;;;;;;;5066703;28;20256;-62
2023/06/18 10:23:34;;;;;;;4.10;3.90;;;;;;;;;;5047065;28;20226;-63
2023/06/18 10:26:02;;;;;;;4.15;3.95;;;;;;;;;;5047576;28;20960;-63
2023/06/18 10:28:31;;;;;;;4.25;3.92;;;;;;;;;;5050550;28;20214;-63
2023/06/18 10:30:58;;;;;;;4.07;3.88;;;;;;;;;;5066602;28;20580;-62
2023/06/18 10:33:25;;;;;;;4.22;3.92;;;;;;;;;;5065479;28;20198;-63
2023/06/18 10:35:53;;;;;;;3.78;3.58;;;;;;;;;;5067019;28;20210;-63
2023/06/18 10:38:21;;;;;;;4.10;3.90;;;;;;;;;;5066957;28;20214;-63
2023/06/18 10:40:48;;;;;;;3.88;3.63;;;;;;;;;;5066934;28;20218;-63
2023/06/18 10:43:15;;;;;;;4.63;4.25;;;;;;;;;;5063423;28;20217;-63
2023/06/18 10:45:57;;;;;;;4.70;3.95;;;;;;;;;;5062799;28;20719;-63
2023/06/18 10:48:24;;;;;;;4.30;4.03;;;;;;;;;;5043589;28;20237;-63
2023/06/18 10:51:09;;;;;;;3.75;3.55;;;;;;;;;;5044964;28;20310;-64
2023/06/18 10:53:38;;;;;;;7.35;3.92;;;;;;;;;;5036692;28;20272;-63
2023/06/18 10:56:05;;;;;;;4.45;4.05;;;;;;;;;;5064150;28;20209;-63
2023/06/18 10:58:33;;;;;;;3.80;3.55;;;;;;;;;;5064753;28;20207;-63
2023/06/18 11:01:00;;;;;;;3.85;3.67;;;;;;;;;;5055909;28;20294;-63
2023/06/18 11:03:34;;;;;;;3.70;3.60;;;;;;;;;;5044198;28;20300;-63
2023/06/18 11:06:02;;;;;;;4.40;4.10;;;;;;;;;;5063501;28;20233;-66
2023/06/18 11:08:30;;;;;;;3.80;3.50;;;;;;;;;;5057318;28;20281;-65
2023/06/18 11:11:06;;;;;;;3.60;3.40;;;;;;;;;;5051167;28;20307;-64
2023/06/18 11:13:41;;;;;;;3.40;3.30;;;;;;;;;;5049403;28;20295;-66
2023/06/18 11:16:13;;;;;;;3.63;3.30;;;;;;;;;;5048456;28;20214;-65
2023/06/18 11:18:41;;;;;;;2.83;2.65;;;;;;;;;;5060793;28;20300;-65
2023/06/18 11:21:08;;;;;;;3.35;3.25;;;;;;;;;;5054473;28;20667;-63
2023/06/18 11:23:35;;;;;;;3.40;3.30;;;;;;;;;;5050249;28;20207;-62
2023/06/18 11:26:02;;;;;;;2.92;2.83;;;;;;;;;;5049194;28;20231;-62
2023/06/18 11:28:32;;;;;;;3.08;2.88;;;;;;;;;;5050400;28;20207;-64
2023/06/18 11:31:00;;;;;;;3.03;2.90;;;;;;;;;;5064420;28;20211;-68
2023/06/18 11:33:27;;;;;;;2.95;2.80;;;;;;;;;;5063783;28;20685;-62
2023/06/18 11:35:56;;;;;;;2.97;2.88;;;;;;;;;;5053290;28;20207;-64
2023/06/18 11:38:25;;;;;;;3.60;3.47;;;;;;;;;;5050582;28;20222;-63
2023/06/18 11:40:52;;;;;;;3.80;3.50;;;;;;;;;;5052531;28;20294;-63
2023/06/18 11:43:20;;;;;;;5.00;3.65;;;;;;;;;;5067600;28;20203;-63
2023/06/18 11:45:49;;;;;;;3.25;3.15;;;;;;;;;;5064560;28;20230;-64
2023/06/18 11:48:17;;;;;;;3.28;3.08;;;;;;;;;;5064081;28;20542;-64
2023/06/18 11:50:46;;;;;;;3.75;3.00;;;;;;;;;;5054436;28;20206;-64
2023/06/18 11:53:14;;;;;;;3.03;2.90;;;;;;;;;;5052231;28;20676;-62
2023/06/18 11:55:41;;;;;;;3.38;3.17;;;;;;;;;;5064176;28;20721;-63
2023/06/18 11:58:09;;;;;;;3.72;3.53;;;;;;;;;;5053998;28;20302;-62
2023/06/18 12:00:36;;;;;;;3.42;3.15;;;;;;;;;;5049862;28;20215;-62
2023/06/18 12:03:04;;;;;;;3.85;3.20;;;;;;;;;;5053012;28;20802;-62
2023/06/18 12:05:35;;;;;;;3.22;3.13;;;;;;;;;;5048388;28;20223;-62
2023/06/18 12:08:08;;;;;;;3.63;3.53;;;;;;;;;;5048654;28;20294;-62
2023/06/18 12:10:35;;;;;;;3.45;3.25;;;;;;;;;;5053708;28;20309;-62
2023/06/18 12:13:06;;;;;;;3.42;3.33;;;;;;;;;;5069005;28;20214;-62
2023/06/18 12:15:36;;;;;;;3.20;3.00;;;;;;;;;;5064747;28;20787;-62
2023/06/18 12:18:09;;;;;;;3.47;3.28;;;;;;;;;;5068303;28;20653;-63
2023/06/18 12:20:37;;;;;;;3.40;3.20;;;;;;;;;;5066748;28;20237;-62
2023/06/18 12:23:05;;;;;;;3.17;2.97;;;;;;;;;;5056528;28;20206;-62
2023/06/18 12:25:33;;;;;;;5.15;3.20;;;;;;;;;;5058034;28;20340;-62
2023/06/18 12:28:02;;;;;;;4.03;3.63;;;;;;;;;;5062936;28;20206;-61
2023/06/18 12:30:30;;;;;;;3.30;3.20;;;;;;;;;;5061814;28;20682;-62
2023/06/18 12:33:05;;;;;;;3.75;3.40;;;;;;;;;;5061834;28;20297;-61
2023/06/18 12:35:33;;;;;;;6.13;3.17;;;;;;;;;;5055729;28;20206;-61
2023/06/18 12:38:04;;;;;;;3.42;3.13;;;;;;;;;;5048921;28;20217;-61
2023/06/18 12:40:32;;;;;;;3.25;3.05;;;;;;;;;;5053519;28;20211;-61
2023/06/18 12:43:00;;;;;;;3.42;3.13;;;;;;;;;;5051920;28;20322;-61
2023/06/18 12:45:27;;;;;;;4.10;3.00;;;;;;;;;;5057832;28;20207;-63
2023/06/18 12:47:54;;;;;;;3.22;3.10;;;;;;;;;;5067206;28;20625;-62
2023/06/18 12:50:41;;;;;;;3.40;3.20;;;;;;;;;;5061223;28;20232;-63
2023/06/18 12:53:13;;;;;;;3.60;3.38;;;;;;;;;;5068362;28;20221;-63
2023/06/18 12:55:40;;;;;;;3.22;3.03;;;;;;;;;;5056709;28;20203;-62
2023/06/18 12:58:15;;;;;;;3.78;3.58;;;;;;;;;;5055933;28;20679;-61
2023/06/18 13:00:42;;;;;;;3.53;3.28;;;;;;;;;;5063432;28;20210;-61
2023/06/18 13:03:09;;;;;;;3.20;3.10;;;;;;;;;;5057106;28;20245;-61
2023/06/18 13:05:38;;;;;;;2.75;2.65;;;;;;;;;;5056639;28;20772;-61
2023/06/18 13:08:05;;;;;;;2.95;2.75;;;;;;;;;;5060674;28;20203;-61
2023/06/18 13:10:33;;;;;;;3.38;3.20;;;;;;;;;;5057547;28;20744;-63
2023/06/18 13:13:00;;;;;;;2.65;2.65;;;;;;;;;;5058596;28;20269;-61
2023/06/18 13:15:27;;;;;;;3.25;2.72;;;;;;;;;;5044950;28;20227;-63
2023/06/18 13:17:54;;;;;;;3.08;2.97;;;;;;;;;;5047233;28;20818;-62
2023/06/18 13:20:21;;;;;;;2.97;2.88;;;;;;;;;;5047862;28;20242;-63
2023/06/18 13:22:50;;;;;;;2.75;2.65;;;;;;;;;;5062463;28;20683;-63
2023/06/18 13:25:17;;;;;;;3.05;2.95;;;;;;;;;;5058180;28;20206;-63
2023/06/18 13:27:44;;;;;;;2.97;2.80;;;;;;;;;;5066573;28;20283;-64
2023/06/18 13:30:12;;;;;;;3.15;3.05;;;;;;;;;;5067060;28;20214;-63
2023/06/18 13:32:39;;;;;;;2.88;2.78;;;;;;;;;;5064948;28;20206;-63
2023/06/18 13:35:07;;;;;;;3.08;2.95;;;;;;;;;;5055932;28;20248;-63
2023/06/18 13:37:35;;;;;;;2.60;2.47;;;;;;;;;;5067096;28;20248;-61
2023/06/18 13:40:03;;;;;;;2.75;2.55;;;;;;;;;;5066869;28;20206;-62
2023/06/18 13:42:30;;;;;;;2.55;2.45;;;;;;;;;;5066797;28;20868;-61
2023/06/18 13:44:59;;;;;;;3.13;2.70;;;;;;;;;;5052605;28;20700;-61
2023/06/18 13:47:26;;;;;;;2.78;2.58;;;;;;;;;;5064518;28;20276;-62
2023/06/18 13:49:55;;;;;;;2.70;2.60;;;;;;;;;;5061467;28;20633;-62
2023/06/18 13:52:22;;;;;;;3.03;2.88;;;;;;;;;;5047038;28;20211;-62
2023/06/18 13:54:49;;;;;;;2.90;2.72;;;;;;;;;;5046826;28;20233;-61
2023/06/18 13:57:18;;;;;;;3.10;3.00;;;;;;;;;;5046920;28;20284;-61
2023/06/18 13:59:45;;;;;;;3.15;3.05;;;;;;;;;;5044810;28;20673;-62
2023/06/18 14:02:12;;;;;;;2.75;2.65;;;;;;;;;;5053319;28;20484;-62
2023/06/18 14:04:39;;;;;;;2.78;2.67;;;;;;;;;;5046486;28;20648;-62
2023/06/18 14:07:07;;;;;;;3.33;3.13;;;;;;;;;;5046135;28;20223;-62
2023/06/18 14:09:34;;;;;;;3.10;2.90;;;;;;;;;;5051071;28;20225;-62
2023/06/18 14:12:01;;;;;;;3.05;2.95;;;;;;;;;;5066163;28;20202;-62
2023/06/18 14:14:30;;;;;;;2.78;2.67;;;;;;;;;;5050675;28;20327;-62
2023/06/18 14:16:57;;;;;;;2.80;2.70;;;;;;;;;;5054916;28;20285;-62
2023/06/18 14:19:25;;;;;;;2.55;2.45;;;;;;;;;;5064464;28;20214;-62
2023/06/18 14:21:52;;;;;;;3.00;2.80;;;;;;;;;;5065847;28;20241;-62
2023/06/18 14:24:19;;;;;;;4.30;3.40;;;;;;;;;;5064830;28;20252;-62
2023/06/18 14:26:47;;;;;;;2.75;2.67;;;;;;;;;;5066543;28;20230;-62
2023/06/18 14:29:14;;;;;;;2.70;2.60;;;;;;;;;;5066002;28;20217;-62
2023/06/18 14:31:43;;;;;;;3.03;2.88;;;;;;;;;;5065931;28;20214;-62
2023/06/18 14:34:13;;;;;;;3.08;2.97;;;;;;;;;;5054688;28;20830;-62
2023/06/18 14:36:40;;;;;;;3.78;3.55;;;;;;;;;;5060578;28;20847;-62
2023/06/18 14:39:08;;;;;;;3.30;3.10;;;;;;;;;;5059101;28;20203;-63
2023/06/18 14:41:36;;;;;;;2.95;2.85;;;;;;;;;;5050683;28;20709;-62
2023/06/18 14:44:03;;;;;;;3.10;3.00;;;;;;;;;;5055885;28;20237;-61
2023/06/18 14:46:30;;;;;;;3.38;3.17;;;;;;;;;;5062477;28;20644;-65
2023/06/18 14:48:58;;;;;;;2.92;2.78;;;;;;;;;;5052574;28;20202;-66